Katterjakk, Sweden

3:52 PM CET on January 31, 2015 (GMT +0100)
Bjornfjell 520moh | Change Station
CLOSE
Current Station
Personal Weather Station
Location: Riksgrensen, NORDLAND
Elevation: 1706 ft
Nearby Weather Stations

Elev 1706 ft 68.44 °N, 18.07 °E | Updated 6 minutes ago

Clear
Clear
6.8 °F
Feels Like -13 °F
N
19.0
Wind Variable Wind from East
Gusts 25.0 mph

Today
High -- | Low -- °F
--% Chance of Precip.
Yesterday
High -- | Low -- °F
Precip. -- in
9:15 AM 2:46 PM
Waxing Gibbous, 90% visible
Pressure 29.44 in
Visibility -9999.0 miles
Clouds
Windchill -13 °F
Dew Point 4 °F
Humidity 87%
Rainfall 0.00 in
Snow Depth Not available.
UV Not available.
Pollen Not available.
Air Quality Not available.
Flu Activity Not available.
METAR ENEV 311350Z 18007KT 130V240 CAVOK M04/M12 Q0997 RMK WIND 1400FT 11016KT

More Conditions Fewer Conditions

Pressure 29.44 in
Visibility -9999.0 miles
Clouds
Windchill -13 °F
Dew Point 4 °F
Humidity 87%
Rainfall 0.00 in
Snow Depth Not available.
UV Not available.
Pollen Not available.
Air Quality Not available.
Flu Activity Not available.
METAR ENEV 311350Z 18007KT 130V240 CAVOK M04/M12 Q0997 RMK WIND 1400FT 11016KT

More Conditions Fewer Conditions

10-Day Weather Forecast

Almanac

Astronomy

Jan. 31, 2015 Rise Set
Actual Time
Civil Twilight
Nautical Twilight
Astronomical Twilight
Moon
Length of Visible Light
Length of Day
Tomorrow will be .
, % of the Moon is Illuminated

Today's Extremes

Country Highs Country Lows

Community

WunderPhotos

Upload Photos

1,792,064 photos uploaded!

WunderBlogs® & News

Nearby

Air Quality

  Air Quality AQ Index Pollutant
Not available.

Snow Depth

Station Depth Elevation

Earthquake Activity

City Distance Mag. Time & Date
Minimum magnitude displayed is 2.5.

Coastal Water Temperatures

Place Temperature

Nearby Weather Stations